createdAt,value
2018-04-08T00:00:53.039Z,985.83
2018-04-08T00:01:53.268Z,985.79
2018-04-08T00:02:53.490Z,985.80
2018-04-08T00:03:53.722Z,985.75
2018-04-08T00:04:53.950Z,985.77
2018-04-08T00:05:54.173Z,985.78
2018-04-08T00:06:54.399Z,985.76
2018-04-08T00:07:54.625Z,985.74
2018-04-08T00:08:54.852Z,985.76
2018-04-08T00:09:55.076Z,985.72
2018-04-08T00:10:55.301Z,985.74
2018-04-08T00:11:55.528Z,985.74
2018-04-08T00:12:55.760Z,985.74
2018-04-08T00:13:55.979Z,985.71
2018-04-08T00:14:56.207Z,985.71
2018-04-08T00:15:56.431Z,985.70
2018-04-08T00:16:56.656Z,985.73
2018-04-08T00:17:56.883Z,985.69
2018-04-08T00:18:57.111Z,985.71
2018-04-08T00:19:57.337Z,985.70
2018-04-08T00:20:57.563Z,985.69
2018-04-08T00:21:57.788Z,985.65
2018-04-08T00:22:58.020Z,985.68
2018-04-08T00:23:58.239Z,985.62
2018-04-08T00:24:58.467Z,985.66
2018-04-08T00:25:58.684Z,985.66
2018-04-08T00:26:58.912Z,985.65
2018-04-08T00:27:59.140Z,985.62
2018-04-08T00:28:59.366Z,985.64
2018-04-08T00:29:59.592Z,985.59
2018-04-08T00:30:59.822Z,985.61
2018-04-08T00:32:00.045Z,985.61
2018-04-08T00:33:00.266Z,985.59
2018-04-08T00:34:00.493Z,985.59
2018-04-08T00:35:00.720Z,985.59
2018-04-08T00:36:00.948Z,985.52
2018-04-08T00:37:01.174Z,985.56
2018-04-08T00:38:01.401Z,985.53
2018-04-08T00:39:01.628Z,985.55
2018-04-08T00:40:01.885Z,985.51
2018-04-08T00:41:02.105Z,985.49
2018-04-08T00:42:02.333Z,985.53
2018-04-08T00:43:02.555Z,985.52
2018-04-08T00:44:02.780Z,985.50
2018-04-08T00:45:03.014Z,985.50
2018-04-08T00:46:03.238Z,985.52
2018-04-08T00:47:03.465Z,985.46
2018-04-08T00:48:03.693Z,985.50
2018-04-08T00:49:03.927Z,985.50
2018-04-08T00:50:04.143Z,985.50
2018-04-08T00:51:04.370Z,985.50
2018-04-08T00:52:04.594Z,985.51
2018-04-08T00:53:04.820Z,985.49
2018-04-08T00:54:05.047Z,985.46
2018-04-08T00:55:05.272Z,985.46
2018-04-08T00:56:05.500Z,985.48
2018-04-08T00:57:05.722Z,985.43
2018-04-08T00:58:05.952Z,985.42
2018-04-08T00:59:06.178Z,985.39
2018-04-08T01:00:06.401Z,985.44
2018-04-08T01:01:06.628Z,985.41
2018-04-08T01:02:06.853Z,985.39
2018-04-08T01:03:07.090Z,985.37
2018-04-08T01:04:07.306Z,985.43
2018-04-08T01:05:07.527Z,985.41
2018-04-08T01:06:07.754Z,985.43
2018-04-08T01:07:07.980Z,985.47
2018-04-08T01:08:08.207Z,985.42
2018-04-08T01:09:08.444Z,985.42
2018-04-08T01:10:08.659Z,985.47
2018-04-08T01:11:08.886Z,985.43
2018-04-08T01:12:09.111Z,985.47
2018-04-08T01:13:09.337Z,985.43
2018-04-08T01:14:09.565Z,985.40
2018-04-08T01:15:09.792Z,985.45
2018-04-08T01:16:10.019Z,985.42
2018-04-08T01:17:10.247Z,985.46
2018-04-08T01:18:10.472Z,985.41
2018-04-08T01:19:10.696Z,985.43
2018-04-08T01:20:10.924Z,985.45
2018-04-08T01:21:11.150Z,985.37
2018-04-08T01:22:11.374Z,985.44
2018-04-08T01:23:11.599Z,985.42
2018-04-08T01:24:11.830Z,985.41
2018-04-08T01:25:12.054Z,985.45
2018-04-08T01:26:12.276Z,985.40
2018-04-08T01:27:12.505Z,985.41
2018-04-08T01:28:12.735Z,985.40
2018-04-08T01:29:12.964Z,985.42
2018-04-08T01:30:13.193Z,985.41
2018-04-08T01:31:13.412Z,985.44
2018-04-08T01:32:13.641Z,985.43
2018-04-08T01:33:13.870Z,985.42
2018-04-08T01:34:14.093Z,985.35
2018-04-08T01:35:14.319Z,985.40
2018-04-08T01:36:14.549Z,985.37
2018-04-08T01:37:14.771Z,985.37
2018-04-08T01:38:14.997Z,985.32
2018-04-08T01:39:15.221Z,985.35
2018-04-08T01:40:15.451Z,985.30
2018-04-08T01:41:15.677Z,985.34
2018-04-08T01:42:15.901Z,985.32
2018-04-08T01:43:16.128Z,985.33
2018-04-08T01:44:16.378Z,985.35
2018-04-08T01:45:16.608Z,985.35
2018-04-08T01:46:16.838Z,985.38
2018-04-08T01:47:17.059Z,985.35
2018-04-08T01:48:17.284Z,985.38
2018-04-08T01:49:17.517Z,985.33
2018-04-08T01:50:17.737Z,985.33
2018-04-08T01:51:17.962Z,985.32
2018-04-08T01:52:18.190Z,985.32
2018-04-08T01:53:18.421Z,985.31
2018-04-08T01:54:18.644Z,985.31
2018-04-08T01:55:18.871Z,985.30
2018-04-08T01:56:19.095Z,985.31
2018-04-08T01:57:19.321Z,985.32
2018-04-08T01:58:19.545Z,985.27
2018-04-08T01:59:19.775Z,985.23
2018-04-08T02:00:19.998Z,985.32
2018-04-08T02:01:20.222Z,985.29
2018-04-08T02:02:20.448Z,985.29
2018-04-08T02:03:20.675Z,985.23
2018-04-08T02:04:20.901Z,985.29
2018-04-08T02:05:21.128Z,985.25
2018-04-08T02:06:21.356Z,985.23
2018-04-08T02:07:21.579Z,985.24
2018-04-08T02:08:21.805Z,985.22
2018-04-08T02:09:22.035Z,985.23
2018-04-08T02:10:22.264Z,985.24
2018-04-08T02:11:22.485Z,985.18
2018-04-08T02:12:22.713Z,985.23
2018-04-08T02:13:22.938Z,985.15
2018-04-08T02:14:23.166Z,985.17
2018-04-08T02:15:23.391Z,985.18
2018-04-08T02:16:23.618Z,985.17
2018-04-08T02:17:23.847Z,985.21
2018-04-08T02:18:24.069Z,985.20
2018-04-08T02:19:24.349Z,985.20
2018-04-08T02:20:24.524Z,985.19
2018-04-08T02:21:24.750Z,985.16
2018-04-08T02:22:24.976Z,985.18
2018-04-08T02:23:25.201Z,985.18
2018-04-08T02:24:25.424Z,985.20
2018-04-08T02:25:25.652Z,985.18
2018-04-08T02:26:25.881Z,985.22
2018-04-08T02:27:26.102Z,985.19
2018-04-08T02:28:26.328Z,985.20
2018-04-08T02:29:26.556Z,985.21
2018-04-08T02:30:26.782Z,985.21
2018-04-08T02:31:27.020Z,985.22
2018-04-08T02:32:27.234Z,985.18
2018-04-08T02:33:27.463Z,985.20
2018-04-08T02:34:27.692Z,985.25
2018-04-08T02:35:27.914Z,985.19
2018-04-08T02:36:28.139Z,985.19
2018-04-08T02:37:28.365Z,985.20
2018-04-08T02:38:28.590Z,985.20
2018-04-08T02:39:28.817Z,985.21
2018-04-08T02:40:29.042Z,985.20
2018-04-08T02:41:29.270Z,985.22
2018-04-08T02:42:29.497Z,985.21
2018-04-08T02:43:29.719Z,985.23
2018-04-08T02:44:29.947Z,985.22
2018-04-08T02:45:30.174Z,985.22
2018-04-08T02:46:30.401Z,985.23
2018-04-08T02:47:30.627Z,985.22
2018-04-08T02:48:30.853Z,985.22
2018-04-08T02:49:31.079Z,985.25
2018-04-08T02:50:31.304Z,985.24
2018-04-08T02:51:31.528Z,985.21
2018-04-08T02:52:31.754Z,985.24
2018-04-08T02:53:31.983Z,985.21
2018-04-08T02:54:32.208Z,985.21
2018-04-08T02:55:32.435Z,985.24
2018-04-08T02:56:32.664Z,985.23
2018-04-08T02:57:32.889Z,985.19
2018-04-08T02:58:33.113Z,985.20
2018-04-08T02:59:33.340Z,985.20
2018-04-08T03:00:33.581Z,985.20
2018-04-08T03:01:33.792Z,985.22
2018-04-08T03:02:34.016Z,985.23
2018-04-08T03:03:34.243Z,985.20
2018-04-08T03:04:34.470Z,985.22
2018-04-08T03:05:34.694Z,985.23
2018-04-08T03:06:34.921Z,985.21
2018-04-08T03:07:35.147Z,985.23
2018-04-08T03:08:35.373Z,985.25
2018-04-08T03:09:35.598Z,985.23
2018-04-08T03:10:35.822Z,985.26
2018-04-08T03:11:36.048Z,985.25
2018-04-08T03:12:36.278Z,985.27
2018-04-08T03:13:36.503Z,985.26
2018-04-08T03:14:36.728Z,985.23
2018-04-08T03:15:36.954Z,985.21
2018-04-08T03:16:37.178Z,985.20
2018-04-08T03:17:37.404Z,985.21
2018-04-08T03:18:37.629Z,985.21
2018-04-08T03:19:37.856Z,985.17
2018-04-08T03:20:38.077Z,985.21
2018-04-08T03:21:38.306Z,985.20
2018-04-08T03:22:38.531Z,985.21
2018-04-08T03:23:38.759Z,985.20
2018-04-08T03:24:38.985Z,985.19
2018-04-08T03:25:39.208Z,985.21
2018-04-08T03:26:39.434Z,985.11
2018-04-08T03:27:39.661Z,985.14
2018-04-08T03:28:39.883Z,985.14
2018-04-08T03:29:40.113Z,985.11
2018-04-08T03:30:40.335Z,985.10
2018-04-08T03:31:40.564Z,985.09
2018-04-08T03:32:40.788Z,985.11
2018-04-08T03:33:41.010Z,985.11
2018-04-08T03:34:41.237Z,985.09
2018-04-08T03:35:41.463Z,985.09
2018-04-08T03:36:41.691Z,985.10
2018-04-08T03:37:41.915Z,985.06
2018-04-08T03:38:42.170Z,985.09
2018-04-08T03:39:42.371Z,985.10
2018-04-08T03:40:42.597Z,985.06
2018-04-08T03:41:42.826Z,985.08
2018-04-08T03:42:43.049Z,985.05
2018-04-08T03:43:43.274Z,985.05
2018-04-08T03:44:43.501Z,985.06
2018-04-08T03:45:43.729Z,985.08
2018-04-08T03:46:43.952Z,985.03
2018-04-08T03:47:44.178Z,985.05
2018-04-08T03:48:44.405Z,985.03
2018-04-08T03:49:44.635Z,985.06
2018-04-08T03:50:44.857Z,985.06
2018-04-08T03:51:45.087Z,985.06
2018-04-08T03:52:45.311Z,985.06
2018-04-08T03:53:45.536Z,985.05
2018-04-08T03:54:45.762Z,985.07
2018-04-08T03:55:45.987Z,985.07
2018-04-08T03:56:46.212Z,985.09
2018-04-08T03:57:46.440Z,985.05
2018-04-08T03:58:46.703Z,985.07
2018-04-08T03:59:46.891Z,985.07
2018-04-08T04:00:47.118Z,985.06
2018-04-08T04:01:47.343Z,985.04
2018-04-08T04:02:47.569Z,985.05
2018-04-08T04:03:47.799Z,985.04
2018-04-08T04:04:48.026Z,985.02
2018-04-08T04:05:48.254Z,985.01
2018-04-08T04:06:48.479Z,984.99
2018-04-08T04:07:48.709Z,985.01
2018-04-08T04:08:48.933Z,984.98
2018-04-08T04:09:49.157Z,985.03
2018-04-08T04:10:49.383Z,985.06
2018-04-08T04:11:49.609Z,985.04
2018-04-08T04:12:49.834Z,985.02
2018-04-08T04:13:50.059Z,985.04
2018-04-08T04:14:50.286Z,985.02
2018-04-08T04:15:50.516Z,985.02
2018-04-08T04:16:50.738Z,985.01
2018-04-08T04:17:50.964Z,985.02
2018-04-08T04:18:51.189Z,985.00
2018-04-08T04:19:51.416Z,984.99
2018-04-08T04:20:51.644Z,984.97
2018-04-08T04:21:51.871Z,984.99
2018-04-08T04:22:52.097Z,985.00
2018-04-08T04:23:52.362Z,985.03
2018-04-08T04:24:52.550Z,985.05
2018-04-08T04:25:52.778Z,985.03
2018-04-08T04:26:53.005Z,985.06
2018-04-08T04:27:53.234Z,985.05
2018-04-08T04:28:53.458Z,985.05
2018-04-08T04:29:53.689Z,985.05
2018-04-08T04:30:53.910Z,985.05
2018-04-08T04:31:54.156Z,985.06
2018-04-08T04:32:54.379Z,985.03
2018-04-08T04:33:54.605Z,985.06
2018-04-08T04:34:54.832Z,985.04
2018-04-08T04:35:55.058Z,985.02
2018-04-08T04:36:55.282Z,985.06
2018-04-08T04:37:55.508Z,985.06
2018-04-08T04:38:55.735Z,985.11
2018-04-08T04:39:55.962Z,985.07
2018-04-08T04:40:56.186Z,985.05
2018-04-08T04:41:56.414Z,985.06
2018-04-08T04:42:56.639Z,985.03
2018-04-08T04:43:56.866Z,985.01
2018-04-08T04:44:57.094Z,985.07
2018-04-08T04:45:57.320Z,985.02
2018-04-08T04:46:57.547Z,985.00
2018-04-08T04:47:57.778Z,984.98
2018-04-08T04:48:58.001Z,985.00
2018-04-08T04:49:58.227Z,985.00
2018-04-08T04:50:58.455Z,984.99
2018-04-08T04:51:58.682Z,985.00
2018-04-08T04:52:58.907Z,984.99
2018-04-08T04:53:59.132Z,985.00
2018-04-08T04:54:59.357Z,985.02
2018-04-08T04:55:59.584Z,984.99
2018-04-08T04:56:59.809Z,984.99
2018-04-08T04:58:00.035Z,985.01
2018-04-08T04:59:00.261Z,985.03
2018-04-08T05:00:00.491Z,985.06
2018-04-08T05:01:00.712Z,985.03
2018-04-08T05:02:00.938Z,985.05
2018-04-08T05:03:01.163Z,985.04
2018-04-08T05:04:01.393Z,985.01
2018-04-08T05:05:01.620Z,985.03
2018-04-08T05:06:01.847Z,985.01
2018-04-08T05:07:02.080Z,984.95
2018-04-08T05:08:02.298Z,984.94
2018-04-08T05:09:02.523Z,984.94
2018-04-08T05:10:02.753Z,984.97
2018-04-08T05:11:02.979Z,984.98
2018-04-08T05:12:03.207Z,985.00
2018-04-08T05:13:03.435Z,984.99
2018-04-08T05:14:03.658Z,985.01
2018-04-08T05:15:03.893Z,985.01
2018-04-08T05:16:04.113Z,984.98
2018-04-08T05:17:04.340Z,985.01
2018-04-08T05:18:04.566Z,985.00
2018-04-08T05:19:04.791Z,985.00
2018-04-08T05:20:05.021Z,985.03
2018-04-08T05:21:05.247Z,985.06
2018-04-08T05:22:05.472Z,985.05
2018-04-08T05:23:05.729Z,985.12
2018-04-08T05:24:05.924Z,985.07
2018-04-08T05:25:06.149Z,985.09
2018-04-08T05:26:06.382Z,985.08
2018-04-08T05:27:06.599Z,985.08
2018-04-08T05:28:06.882Z,985.10
2018-04-08T05:29:07.055Z,985.04
2018-04-08T05:30:07.279Z,985.08
2018-04-08T05:31:07.506Z,985.12
2018-04-08T05:32:07.753Z,985.13
2018-04-08T05:33:07.960Z,985.13
2018-04-08T05:34:08.187Z,985.11
2018-04-08T05:35:08.413Z,985.14
2018-04-08T05:36:08.643Z,985.14
2018-04-08T05:37:08.866Z,985.14
2018-04-08T05:38:09.096Z,985.13
2018-04-08T05:39:09.324Z,985.20
2018-04-08T05:40:09.552Z,985.20
2018-04-08T05:41:09.781Z,985.22
2018-04-08T05:42:10.017Z,985.22
2018-04-08T05:43:10.239Z,985.14
2018-04-08T05:44:10.463Z,985.21
2018-04-08T05:45:10.692Z,985.17
2018-04-08T05:46:10.920Z,985.18
2018-04-08T05:47:11.149Z,985.15
2018-04-08T05:48:11.379Z,985.20
2018-04-08T05:49:11.604Z,985.19
2018-04-08T05:50:11.830Z,985.25
2018-04-08T05:51:12.058Z,985.26
2018-04-08T05:52:12.286Z,985.27
2018-04-08T05:53:12.515Z,985.31
2018-04-08T05:54:12.741Z,985.30
2018-04-08T05:55:12.968Z,985.31
2018-04-08T05:56:13.198Z,985.28
2018-04-08T05:57:13.427Z,985.31
2018-04-08T05:58:13.656Z,985.32
2018-04-08T05:59:13.883Z,985.28
2018-04-08T06:00:14.119Z,985.32
2018-04-08T06:01:14.344Z,985.31
2018-04-08T06:02:14.572Z,985.31
2018-04-08T06:03:14.803Z,985.31
2018-04-08T06:04:15.036Z,985.34
2018-04-08T06:05:15.266Z,985.34
2018-04-08T06:06:15.494Z,985.34
2018-04-08T06:07:15.723Z,985.34
2018-04-08T06:08:15.953Z,985.31
2018-04-08T06:09:16.187Z,985.34
2018-04-08T06:10:16.416Z,985.31
2018-04-08T06:11:16.646Z,985.33
2018-04-08T06:12:16.874Z,985.30
2018-04-08T06:13:17.105Z,985.28
2018-04-08T06:14:17.339Z,985.36
2018-04-08T06:15:17.569Z,985.34
2018-04-08T06:16:17.801Z,985.30
2018-04-08T06:17:18.034Z,985.28
2018-04-08T06:18:18.263Z,985.31
2018-04-08T06:19:18.495Z,985.29
2018-04-08T06:20:18.761Z,985.26
2018-04-08T06:21:18.958Z,985.28
2018-04-08T06:22:19.190Z,985.30
2018-04-08T06:23:19.418Z,985.26
2018-04-08T06:24:19.649Z,985.30
2018-04-08T06:25:19.881Z,985.28
2018-04-08T06:26:20.112Z,985.28
2018-04-08T06:27:20.345Z,985.29
2018-04-08T06:28:20.575Z,985.31
2018-04-08T06:29:20.810Z,985.31
2018-04-08T06:30:21.041Z,985.28
2018-04-08T06:31:21.273Z,985.29
2018-04-08T06:32:21.506Z,985.27
2018-04-08T06:33:21.740Z,985.27
2018-04-08T06:34:21.973Z,985.29
2018-04-08T06:35:22.205Z,985.26
2018-04-08T06:36:22.440Z,985.26
2018-04-08T06:37:22.675Z,985.24
2018-04-08T06:38:22.905Z,985.29
2018-04-08T06:39:23.139Z,985.27
2018-04-08T06:40:23.371Z,985.28
2018-04-08T06:41:23.605Z,985.24
2018-04-08T06:42:23.836Z,985.26
2018-04-08T06:43:24.073Z,985.27
2018-04-08T06:44:24.305Z,985.28
2018-04-08T06:45:24.540Z,985.27
2018-04-08T06:46:24.772Z,985.26
2018-04-08T06:47:25.009Z,985.21
2018-04-08T06:48:25.233Z,985.24
2018-04-08T06:49:25.526Z,985.20
2018-04-08T06:50:25.701Z,985.16
2018-04-08T06:51:25.931Z,985.15
2018-04-08T06:52:26.163Z,985.20
2018-04-08T06:53:26.395Z,985.18
2018-04-08T06:54:26.631Z,985.17
2018-04-08T06:55:26.858Z,985.14
2018-04-08T06:56:27.091Z,985.15
2018-04-08T06:57:27.322Z,985.20
2018-04-08T06:58:27.555Z,985.17
2018-04-08T06:59:27.788Z,985.16
2018-04-08T07:00:28.019Z,985.18
2018-04-08T07:01:28.252Z,985.17
2018-04-08T07:02:28.481Z,985.13
2018-04-08T07:03:28.714Z,985.22
2018-04-08T07:04:28.949Z,985.15
2018-04-08T07:05:29.182Z,985.15
2018-04-08T07:06:29.409Z,985.16
2018-04-08T07:07:29.641Z,985.10
2018-04-08T07:08:29.871Z,985.05
2018-04-08T07:09:30.104Z,985.07
2018-04-08T07:10:30.334Z,985.04
2018-04-08T07:11:30.564Z,985.01
2018-04-08T07:12:30.798Z,985.01
2018-04-08T07:13:31.029Z,985.01
2018-04-08T07:14:31.259Z,985.00
2018-04-08T07:15:31.490Z,985.01
2018-04-08T07:16:31.720Z,985.03
2018-04-08T07:17:31.955Z,985.04
2018-04-08T07:18:32.204Z,985.01
2018-04-08T07:19:32.410Z,985.07
2018-04-08T07:20:32.643Z,985.05
2018-04-08T07:21:32.877Z,985.05
2018-04-08T07:22:33.101Z,985.04
2018-04-08T07:23:33.336Z,985.02
2018-04-08T07:24:33.595Z,985.03
2018-04-08T07:25:33.798Z,985.03
2018-04-08T07:26:34.029Z,985.02
2018-04-08T07:27:34.256Z,985.03
2018-04-08T07:28:34.486Z,985.06
2018-04-08T07:29:34.717Z,985.01
2018-04-08T07:30:34.948Z,985.02
2018-04-08T07:31:35.181Z,984.97
2018-04-08T07:32:35.405Z,985.01
2018-04-08T07:33:35.636Z,985.00
2018-04-08T07:34:35.866Z,984.97
2018-04-08T07:35:36.097Z,984.95
2018-04-08T07:36:36.327Z,984.97
2018-04-08T07:37:36.564Z,984.95
2018-04-08T07:38:36.787Z,984.96
2018-04-08T07:39:37.014Z,984.97
2018-04-08T07:40:37.245Z,984.95
2018-04-08T07:41:37.475Z,984.94
2018-04-08T07:42:37.704Z,984.96
2018-04-08T07:43:37.936Z,984.92
2018-04-08T07:44:38.165Z,984.93
2018-04-08T07:45:38.397Z,984.91
2018-04-08T07:46:38.627Z,984.93
2018-04-08T07:47:38.858Z,984.90
2018-04-08T07:48:39.091Z,984.86
2018-04-08T07:49:39.313Z,984.88
2018-04-08T07:50:39.542Z,984.85
2018-04-08T07:51:39.771Z,984.86
2018-04-08T07:52:40.002Z,984.89
2018-04-08T07:53:40.241Z,984.85
2018-04-08T07:54:40.461Z,984.84
2018-04-08T07:55:40.691Z,984.82
2018-04-08T07:56:40.913Z,984.81
2018-04-08T07:57:41.146Z,984.82
2018-04-08T07:58:41.377Z,984.82
2018-04-08T07:59:41.609Z,984.78
2018-04-08T08:00:41.838Z,984.76
2018-04-08T08:01:42.066Z,984.82
2018-04-08T08:02:42.296Z,984.83
2018-04-08T08:03:42.525Z,984.85
2018-04-08T08:04:42.759Z,984.82
2018-04-08T08:05:42.991Z,984.82
2018-04-08T08:06:43.216Z,984.84
2018-04-08T08:07:43.442Z,984.81
2018-04-08T08:08:43.673Z,984.82
2018-04-08T08:09:43.902Z,984.80
2018-04-08T08:10:44.133Z,984.81
2018-04-08T08:11:44.370Z,984.78
2018-04-08T08:12:44.596Z,984.77
2018-04-08T08:13:44.828Z,984.73
2018-04-08T08:14:45.059Z,984.75
2018-04-08T08:15:45.330Z,984.72
2018-04-08T08:16:45.519Z,984.73
2018-04-08T08:17:45.744Z,984.74
2018-04-08T08:18:45.979Z,984.75
2018-04-08T08:19:46.211Z,984.78
2018-04-08T08:20:46.443Z,984.77
2018-04-08T08:21:46.673Z,984.80
2018-04-08T08:22:46.902Z,984.78
2018-04-08T08:23:47.136Z,984.78
2018-04-08T08:24:47.369Z,984.76
2018-04-08T08:25:47.601Z,984.72
2018-04-08T08:26:47.830Z,984.72
2018-04-08T08:27:48.060Z,984.71
2018-04-08T08:28:48.293Z,984.71
2018-04-08T08:29:48.525Z,984.72
2018-04-08T08:30:48.754Z,984.68
2018-04-08T08:31:48.986Z,984.68
2018-04-08T08:32:49.219Z,984.70
2018-04-08T08:33:49.449Z,984.68
2018-04-08T08:34:49.681Z,984.69
2018-04-08T08:35:49.912Z,984.64
2018-04-08T08:36:50.140Z,984.64
2018-04-08T08:37:50.374Z,984.65
2018-04-08T08:38:50.603Z,984.63
2018-04-08T08:39:50.834Z,984.62
2018-04-08T08:40:51.063Z,984.63
2018-04-08T08:41:51.293Z,984.64
2018-04-08T08:42:51.524Z,984.65
2018-04-08T08:43:51.755Z,984.65
2018-04-08T08:44:51.989Z,984.66
2018-04-08T08:45:52.221Z,984.62
2018-04-08T08:46:52.456Z,984.63
2018-04-08T08:47:52.681Z,984.63
2018-04-08T08:48:52.916Z,984.56
2018-04-08T08:49:53.144Z,984.60
2018-04-08T08:50:53.377Z,984.60
2018-04-08T08:51:53.607Z,984.58
2018-04-08T08:52:53.841Z,984.58
2018-04-08T08:53:54.069Z,984.56
2018-04-08T08:54:54.363Z,984.52
2018-04-08T08:55:54.534Z,984.51
2018-04-08T08:56:54.772Z,984.50
2018-04-08T08:57:55.004Z,984.47
2018-04-08T08:58:55.235Z,984.48
2018-04-08T08:59:55.467Z,984.48
2018-04-08T09:00:55.697Z,984.45
2018-04-08T09:01:55.936Z,984.44
2018-04-08T09:02:56.160Z,984.45
2018-04-08T09:03:56.393Z,984.45
2018-04-08T09:04:56.628Z,984.43
2018-04-08T09:05:56.865Z,984.41
2018-04-08T09:06:57.097Z,984.42
2018-04-08T09:07:57.326Z,984.42
2018-04-08T09:08:57.560Z,984.42
2018-04-08T09:09:57.793Z,984.40
2018-04-08T09:10:58.027Z,984.38
2018-04-08T09:11:58.263Z,984.39
2018-04-08T09:12:58.489Z,984.35
2018-04-08T09:13:58.723Z,984.40
2018-04-08T09:14:58.960Z,984.41
2018-04-08T09:15:59.192Z,984.40
2018-04-08T09:16:59.421Z,984.34
2018-04-08T09:17:59.655Z,984.32
2018-04-08T09:18:59.885Z,984.38
2018-04-08T09:20:00.123Z,984.36
2018-04-08T09:21:00.350Z,984.33
2018-04-08T09:22:00.582Z,984.32
2018-04-08T09:23:00.820Z,984.31
2018-04-08T09:24:01.057Z,984.29
2018-04-08T09:25:01.292Z,984.30
2018-04-08T09:26:01.529Z,984.27
2018-04-08T09:27:01.761Z,984.26
2018-04-08T09:28:01.992Z,984.28
2018-04-08T09:29:02.228Z,984.28
2018-04-08T09:30:02.457Z,984.21
2018-04-08T09:31:02.688Z,984.26
2018-04-08T09:32:02.921Z,984.24
2018-04-08T09:33:03.154Z,984.20
2018-04-08T09:34:03.386Z,984.24
2018-04-08T09:35:03.616Z,984.22
2018-04-08T09:36:03.852Z,984.22
2018-04-08T09:37:04.080Z,984.22
2018-04-08T09:38:04.311Z,984.20
2018-04-08T09:39:04.545Z,984.20
2018-04-08T09:40:04.777Z,984.22
2018-04-08T09:41:05.006Z,984.18
2018-04-08T09:42:05.242Z,984.23
2018-04-08T09:43:05.472Z,984.24
2018-04-08T09:44:05.709Z,984.23
2018-04-08T09:45:05.943Z,984.23
2018-04-08T09:46:06.172Z,984.23
2018-04-08T09:47:06.403Z,984.23
2018-04-08T09:48:06.636Z,984.23
2018-04-08T09:49:06.869Z,984.24
2018-04-08T09:50:07.101Z,984.19
2018-04-08T09:51:07.332Z,984.16
2018-04-08T09:52:07.568Z,984.16
2018-04-08T09:53:07.806Z,984.17
2018-04-08T09:54:08.039Z,984.17
2018-04-08T09:55:08.269Z,984.12
2018-04-08T09:56:08.503Z,984.07
2018-04-08T09:57:08.739Z,984.12
2018-04-08T09:58:08.971Z,984.09
2018-04-08T09:59:09.204Z,984.12
2018-04-08T10:00:09.438Z,984.08
2018-04-08T10:01:09.674Z,984.05
2018-04-08T10:02:09.905Z,984.03
2018-04-08T10:03:10.140Z,984.02
2018-04-08T10:04:10.378Z,984.02
2018-04-08T10:05:10.607Z,984.06
2018-04-08T10:06:10.843Z,984.03
2018-04-08T10:07:11.071Z,984.03
2018-04-08T10:08:11.308Z,984.02
2018-04-08T10:09:11.543Z,984.04
2018-04-08T10:10:11.770Z,984.04
2018-04-08T10:11:12.001Z,984.02
2018-04-08T10:12:12.234Z,983.97
2018-04-08T10:13:12.469Z,984.02
2018-04-08T10:14:12.698Z,983.97
2018-04-08T10:15:12.933Z,983.99
2018-04-08T10:16:16.110Z,983.99
2018-04-08T10:17:13.414Z,983.99
2018-04-08T10:18:13.647Z,983.97
2018-04-08T10:19:13.882Z,983.97
2018-04-08T10:20:14.115Z,984.01
2018-04-08T10:21:14.350Z,983.96
2018-04-08T10:22:14.588Z,983.97
2018-04-08T10:23:14.813Z,983.95
2018-04-08T10:24:15.053Z,983.96
2018-04-08T10:25:15.283Z,983.96
2018-04-08T10:26:15.521Z,983.94
2018-04-08T10:27:15.750Z,983.93
2018-04-08T10:28:15.986Z,983.89
2018-04-08T10:29:16.292Z,983.93
2018-04-08T10:30:16.489Z,983.94
2018-04-08T10:31:16.684Z,983.87
2018-04-08T10:32:16.913Z,983.89
2018-04-08T10:33:17.147Z,983.87
2018-04-08T10:34:17.381Z,983.92
2018-04-08T10:35:17.616Z,983.91
2018-04-08T10:36:17.856Z,983.88
2018-04-08T10:37:18.087Z,983.91
2018-04-08T10:38:18.320Z,983.89
2018-04-08T10:39:18.552Z,983.87
2018-04-08T10:40:18.785Z,983.84
2018-04-08T10:41:19.019Z,983.87
2018-04-08T10:42:19.251Z,983.81
2018-04-08T10:43:19.499Z,983.81
2018-04-08T10:44:19.734Z,983.79
2018-04-08T10:45:19.970Z,983.75
2018-04-08T10:46:20.204Z,983.75
2018-04-08T10:47:20.444Z,983.76
2018-04-08T10:48:20.672Z,983.74
2018-04-08T10:49:20.909Z,983.74
2018-04-08T10:50:21.136Z,983.72
2018-04-08T10:51:21.373Z,983.74
2018-04-08T10:52:21.605Z,983.72
2018-04-08T10:53:21.841Z,983.69
2018-04-08T10:54:22.075Z,983.72
2018-04-08T10:55:22.308Z,983.69
2018-04-08T10:56:22.540Z,983.70
2018-04-08T10:57:22.780Z,983.67
2018-04-08T10:58:23.016Z,983.67
2018-04-08T10:59:23.244Z,983.70
2018-04-08T11:00:23.484Z,983.72
2018-04-08T11:01:23.714Z,983.68
2018-04-08T11:02:23.950Z,983.69
2018-04-08T11:03:24.188Z,983.66
2018-04-08T11:04:24.420Z,983.69
2018-04-08T11:05:24.651Z,983.64
2018-04-08T11:06:24.883Z,983.65
2018-04-08T11:07:25.120Z,983.62
2018-04-08T11:08:25.361Z,983.58
2018-04-08T11:09:25.588Z,983.58
2018-04-08T11:10:25.815Z,983.53
2018-04-08T11:11:26.051Z,983.57
2018-04-08T11:12:26.284Z,983.56
2018-04-08T11:13:26.513Z,983.52
2018-04-08T11:14:26.751Z,983.50
2018-04-08T11:15:26.989Z,983.53
2018-04-08T11:16:27.226Z,983.54
2018-04-08T11:17:27.452Z,983.49
2018-04-08T11:18:27.688Z,983.51
2018-04-08T11:19:27.925Z,983.47
2018-04-08T11:20:28.166Z,983.49
2018-04-08T11:21:28.390Z,983.48
2018-04-08T11:22:28.651Z,983.48
2018-04-08T11:23:28.857Z,983.46
2018-04-08T11:24:29.097Z,983.47
2018-04-08T11:25:29.333Z,983.45
2018-04-08T11:26:29.565Z,983.43
2018-04-08T11:27:29.798Z,983.39
2018-04-08T11:28:30.030Z,983.39
2018-04-08T11:29:30.264Z,983.38
2018-04-08T11:30:30.496Z,983.37
2018-04-08T11:31:30.749Z,983.31
2018-04-08T11:32:30.970Z,983.34
2018-04-08T11:33:31.201Z,983.34
2018-04-08T11:34:31.439Z,983.32
2018-04-08T11:35:31.673Z,983.30
2018-04-08T11:36:31.906Z,983.30
2018-04-08T11:37:32.138Z,983.32
2018-04-08T11:38:32.377Z,983.32
2018-04-08T11:39:32.610Z,983.29
2018-04-08T11:40:32.844Z,983.28
2018-04-08T11:41:33.081Z,983.28
2018-04-08T11:42:33.313Z,983.23
2018-04-08T11:43:33.546Z,983.28
2018-04-08T11:44:33.784Z,983.25
2018-04-08T11:45:34.011Z,983.24
2018-04-08T11:46:34.247Z,983.25
2018-04-08T11:47:34.485Z,983.25
2018-04-08T11:48:34.711Z,983.20
2018-04-08T11:49:34.944Z,983.21
2018-04-08T11:50:35.176Z,983.18
2018-04-08T11:51:35.417Z,983.15
2018-04-08T11:52:35.649Z,983.18
2018-04-08T11:53:35.901Z,983.16
2018-04-08T11:54:36.141Z,983.16
2018-04-08T11:55:36.376Z,983.15
2018-04-08T11:56:36.606Z,983.14
2018-04-08T11:57:36.845Z,983.15
2018-04-08T11:58:37.081Z,983.15
2018-04-08T11:59:37.318Z,983.11
2018-04-08T12:00:37.550Z,983.10
2018-04-08T12:01:37.783Z,983.09
2018-04-08T12:02:38.018Z,983.10
2018-04-08T12:03:38.255Z,983.07
2018-04-08T12:04:38.492Z,983.06
2018-04-08T12:05:38.724Z,983.05
2018-04-08T12:06:38.961Z,983.00
2018-04-08T12:07:39.195Z,983.01
2018-04-08T12:08:39.427Z,983.00
2018-04-08T12:09:39.664Z,982.97
2018-04-08T12:10:39.894Z,982.92
2018-04-08T12:11:40.133Z,982.94
2018-04-08T12:12:40.368Z,982.90
2018-04-08T12:13:40.604Z,982.92
2018-04-08T12:14:40.839Z,982.93
2018-04-08T12:15:41.075Z,982.94
2018-04-08T12:16:41.309Z,982.93
2018-04-08T12:17:41.548Z,982.91
2018-04-08T12:18:41.776Z,982.89
2018-04-08T12:19:42.013Z,982.86
2018-04-08T12:20:42.251Z,982.89
2018-04-08T12:21:42.483Z,982.92
2018-04-08T12:22:42.718Z,982.88
2018-04-08T12:23:42.951Z,982.84
2018-04-08T12:24:43.192Z,982.85
2018-04-08T12:25:43.425Z,982.83
2018-04-08T12:26:43.660Z,982.82
2018-04-08T12:27:43.892Z,982.80
2018-04-08T12:28:44.127Z,982.78
2018-04-08T12:29:44.363Z,982.81
2018-04-08T12:30:44.606Z,982.80
2018-04-08T12:31:44.831Z,982.79